Time;durP1;ratioP1;P1;durP2;ratioP2;P2;SDS_P1;SDS_P2;PMS_P1;PMS_P2;Temp;Humidity;BMP_temperature;BMP_pressure;BME280_temperature;BME280_humidity;BME280_pressure;Samples;Min_cycle;Max_cycle;Signal;HPM_P1;HPM_P2
2023/12/12 00:00:29;;;;;;;49.65;30.85;;;;;;;-142.57;100.00;55967.75;4972671;28;20031;-80
2023/12/12 00:02:58;;;;;;;56.95;33.53;;;;;;;-142.57;100.00;55992.00;4972686;28;20111;-79
2023/12/12 00:05:24;;;;;;;63.13;35.78;;;;;;;-142.57;100.00;56008.16;4972302;28;20041;-80
2023/12/12 00:07:50;;;;;;;74.10;40.30;;;;;;;-142.57;100.00;55983.91;4972854;28;20106;-79
2023/12/12 00:10:16;;;;;;;77.25;40.33;;;;;;;-142.57;100.00;55977.84;4955696;28;20442;-80
2023/12/12 00:12:41;;;;;;;54.85;32.53;;;;;;;-142.57;100.00;55996.03;4969275;28;20081;-81
2023/12/12 00:15:07;;;;;;;54.78;32.28;;;;;;;-142.57;100.00;55965.72;4969633;28;20039;-81
2023/12/12 00:17:33;;;;;;;54.20;30.77;;;;;;;-142.57;100.00;55977.84;4960960;28;20122;-80
2023/12/12 00:19:58;;;;;;;46.47;29.20;;;;;;;-142.57;100.00;55943.50;4955649;28;20490;-80
2023/12/12 00:22:23;;;;;;;44.30;26.60;;;;;;;-142.57;100.00;55933.41;4959080;28;20500;-80
2023/12/12 00:24:49;;;;;;;44.80;28.02;;;;;;;-142.57;100.00;55955.63;4962359;28;20552;-80
2023/12/12 00:27:15;;;;;;;42.75;27.13;;;;;;;-142.57;100.00;55923.28;4960487;28;20132;-78
2023/12/12 00:29:45;;;;;;;42.95;27.13;;;;;;;-142.57;100.00;55919.25;4976516;28;20537;-78
2023/12/12 00:32:10;;;;;;;41.70;27.15;;;;;;;-142.57;100.00;55905.09;4972289;28;20049;-78
2023/12/12 00:34:36;;;;;;;39.17;25.80;;;;;;;-142.57;100.00;55945.53;4964632;28;20034;-79
2023/12/12 00:37:02;;;;;;;42.13;26.67;;;;;;;-142.57;100.00;55919.25;4946118;28;20094;-78
2023/12/12 00:39:28;;;;;;;42.85;26.63;;;;;;;-142.57;100.00;55862.69;4956919;28;20031;-80
2023/12/12 00:41:53;;;;;;;46.25;27.65;;;;;;;-142.57;100.00;55844.50;4969576;28;20097;-78
2023/12/12 00:44:19;;;;;;;45.13;27.42;;;;;;;-142.57;100.00;55854.59;4974731;28;20485;-79
2023/12/12 00:46:44;;;;;;;41.60;26.70;;;;;;;-142.57;100.00;55848.53;4975389;28;20035;-77
2023/12/12 00:49:10;;;;;;;38.17;25.40;;;;;;;-142.57;100.00;55892.97;4964595;28;20039;-79
2023/12/12 00:51:36;;;;;;;43.35;26.73;;;;;;;-142.57;100.00;55842.47;4962305;28;20034;-77
2023/12/12 00:54:01;;;;;;;41.72;26.83;;;;;;;-142.57;100.00;55866.72;4959313;28;20031;-81
2023/12/12 00:56:27;;;;;;;41.95;27.35;;;;;;;-142.57;100.00;55899.03;4962076;28;20073;-79
2023/12/12 00:58:52;;;;;;;46.65;28.88;;;;;;;-142.57;100.00;55886.91;4971706;28;20031;-80
2023/12/12 01:01:18;;;;;;;46.65;29.25;;;;;;;-142.57;100.00;55923.28;4967553;28;20470;-78
2023/12/12 01:03:43;;;;;;;63.33;34.17;;;;;;;-142.57;100.00;55923.28;4971712;28;20043;-79
2023/12/12 01:06:20;;;;;;;58.55;31.33;;;;;;;-142.57;100.00;55987.94;4965761;28;20031;-81
2023/12/12 01:08:45;;;;;;;52.10;30.45;;;;;;;-142.57;100.00;55943.50;4969401;28;20062;-79
2023/12/12 01:11:10;;;;;;;53.88;31.25;;;;;;;-142.57;100.00;55953.59;4952700;28;20501;-80
2023/12/12 01:13:36;;;;;;;55.97;30.48;;;;;;;-142.57;100.00;55967.75;4967750;28;20089;-77
2023/12/12 01:16:01;;;;;;;56.80;32.88;;;;;;;-142.57;100.00;55911.16;4967309;28;20062;-80
2023/12/12 01:18:27;;;;;;;54.08;31.15;;;;;;;-142.57;100.00;55927.34;4953815;28;20035;-81
2023/12/12 01:20:53;;;;;;;57.10;31.88;;;;;;;-142.57;100.00;55979.88;4973731;28;20027;-77
2023/12/12 01:23:18;;;;;;;62.28;33.72;;;;;;;-142.57;100.00;55975.84;4975147;28;20038;-79
2023/12/12 01:25:44;;;;;;;78.60;38.17;;;;;;;-142.57;100.00;55965.72;4964429;28;20055;-77
2023/12/12 01:28:10;;;;;;;80.72;39.72;;;;;;;-142.57;100.00;56020.28;4954575;28;20058;-77
2023/12/12 01:30:35;;;;;;;67.78;34.05;;;;;;;-142.57;100.00;56012.19;4956010;28;20065;-79
2023/12/12 01:33:00;;;;;;;57.42;30.02;;;;;;;-142.57;100.00;55983.91;4960975;28;20170;-79
2023/12/12 01:35:26;;;;;;;47.42;29.80;;;;;;;-142.57;100.00;55979.88;4958407;28;20031;-80
2023/12/12 01:37:51;;;;;;;45.45;28.10;;;;;;;-142.57;100.00;55931.38;4956148;28;20549;-79
2023/12/12 01:40:17;;;;;;;42.75;27.17;;;;;;;-142.57;100.00;55917.22;4961613;28;20490;-80
2023/12/12 01:42:43;;;;;;;36.85;24.33;;;;;;;-142.57;100.00;55909.16;4966921;28;20038;-79
2023/12/12 01:45:11;;;;;;;40.40;25.25;;;;;;;-142.57;100.00;55840.44;4958537;28;20043;-76
2023/12/12 01:47:37;;;;;;;37.65;24.85;;;;;;;-142.57;100.00;55897.03;4972597;28;20515;-77
2023/12/12 01:50:03;;;;;;;33.88;23.35;;;;;;;-142.57;100.00;55852.56;4970641;28;20046;-78
2023/12/12 01:52:29;;;;;;;31.52;22.30;;;;;;;-142.57;100.00;55854.59;4975174;28;20054;-77
2023/12/12 01:54:55;;;;;;;32.20;22.08;;;;;;;-142.57;100.00;55844.50;4973857;28;20124;-80
2023/12/12 01:57:21;;;;;;;33.72;22.25;;;;;;;-142.57;100.00;55858.63;4960686;28;20128;-78
2023/12/12 01:59:48;;;;;;;33.05;22.88;;;;;;;-142.57;100.00;55858.63;4975935;28;20545;-77
2023/12/12 02:02:18;;;;;;;33.97;23.58;;;;;;;-142.57;100.00;55846.50;4976365;28;20035;-78
2023/12/12 02:04:46;;;;;;;38.13;24.88;;;;;;;-142.57;100.00;55882.88;4973010;28;20038;-79
2023/12/12 02:07:13;;;;;;;32.58;23.60;;;;;;;-142.57;100.00;55878.84;4975460;28;20118;-78
2023/12/12 02:09:38;;;;;;;36.95;23.65;;;;;;;-142.57;100.00;55858.63;4972565;28;20042;-78
2023/12/12 02:12:04;;;;;;;33.03;23.33;;;;;;;-142.57;100.00;55876.81;4965553;28;20042;-79
2023/12/12 02:14:31;;;;;;;35.33;23.30;;;;;;;-142.57;100.00;55860.66;4987713;28;20194;-78
2023/12/12 02:16:56;;;;;;;33.63;22.67;;;;;;;-142.57;100.00;55856.63;4991043;28;20031;-81
2023/12/12 02:19:22;;;;;;;31.92;22.60;;;;;;;-142.57;100.00;55878.84;4991442;28;20039;-78
2023/12/12 02:21:47;;;;;;;33.50;23.10;;;;;;;-142.57;100.00;55866.72;4991252;28;20094;-79
2023/12/12 02:24:13;;;;;;;32.70;22.85;;;;;;;-142.57;100.00;55806.09;4991088;28;20039;-78
2023/12/12 02:26:39;;;;;;;33.95;23.25;;;;;;;-142.57;100.00;55852.56;4989776;28;20030;-80
2023/12/12 02:29:04;;;;;;;37.92;22.73;;;;;;;-142.57;100.00;55874.78;4988054;28;20039;-78
2023/12/12 02:31:30;;;;;;;31.10;22.42;;;;;;;-142.57;100.00;55911.16;4987645;28;20097;-80
2023/12/12 02:33:55;;;;;;;31.13;21.92;;;;;;;-142.57;100.00;55810.13;4977747;28;20030;-79
2023/12/12 02:36:21;;;;;;;34.35;24.50;;;;;;;-142.57;100.00;55878.84;4975775;28;20477;-79
2023/12/12 02:38:46;;;;;;;33.78;22.58;;;;;;;-142.57;100.00;55913.19;4979380;28;20126;-77
2023/12/12 02:41:13;;;;;;;32.50;23.10;;;;;;;-142.57;100.00;55880.84;4981681;28;20041;-76
2023/12/12 02:43:38;;;;;;;32.92;22.83;;;;;;;-142.57;100.00;55862.69;4975761;28;20146;-78
2023/12/12 02:46:04;;;;;;;33.53;22.23;;;;;;;-142.57;100.00;55854.59;4978347;28;20050;-79
2023/12/12 02:48:29;;;;;;;33.15;22.25;;;;;;;-142.57;100.00;55854.59;4980668;28;20034;-77
2023/12/12 02:50:55;;;;;;;35.88;22.23;;;;;;;-142.57;100.00;55826.31;4981539;28;20034;-78
2023/12/12 02:53:21;;;;;;;32.33;22.08;;;;;;;-142.57;100.00;55866.72;4980962;28;20138;-79
2023/12/12 02:55:50;;;;;;;32.28;22.25;;;;;;;-142.57;100.00;55826.31;4959845;28;20031;-78
2023/12/12 02:58:15;;;;;;;35.80;22.98;;;;;;;-142.57;100.00;55862.69;4957009;29;20051;-77
2023/12/12 03:00:41;;;;;;;32.90;22.35;;;;;;;-142.57;100.00;55814.19;4976305;28;20023;-80
2023/12/12 03:03:06;;;;;;;32.13;22.08;;;;;;;-142.57;100.00;55820.25;4978879;28;20039;-79
2023/12/12 03:05:32;;;;;;;33.67;22.63;;;;;;;-142.57;100.00;55830.34;4991649;28;20066;-76
2023/12/12 03:07:57;;;;;;;32.10;21.63;;;;;;;-142.57;100.00;55783.88;4980092;28;20071;-77
2023/12/12 03:10:23;;;;;;;35.20;23.95;;;;;;;-142.57;100.00;55840.44;4962249;28;20110;-80
2023/12/12 03:12:49;;;;;;;34.05;23.20;;;;;;;-142.57;100.00;55842.47;4960653;28;20066;-76
2023/12/12 03:15:15;;;;;;;34.83;23.77;;;;;;;-142.57;100.00;55880.84;4977309;28;20090;-79
2023/12/12 03:17:41;;;;;;;37.55;24.05;;;;;;;-142.57;100.00;55890.97;4995729;28;20038;-79
2023/12/12 03:20:07;;;;;;;35.83;22.85;;;;;;;-142.57;100.00;55892.97;4995385;28;20070;-80
2023/12/12 03:22:32;;;;;;;37.85;23.25;;;;;;;-142.57;100.00;55850.56;4994371;28;20154;-79
2023/12/12 03:24:58;;;;;;;36.20;24.27;;;;;;;-142.57;100.00;55874.78;4994829;28;20042;-80
2023/12/12 03:27:23;;;;;;;35.22;23.90;;;;;;;-142.57;100.00;55878.84;4993057;28;20047;-77
2023/12/12 03:29:49;;;;;;;35.30;23.65;;;;;;;-142.57;100.00;55876.81;4994098;28;20030;-80
2023/12/12 03:32:14;;;;;;;35.95;23.10;;;;;;;-142.57;100.00;55836.41;4993406;28;20042;-79
2023/12/12 03:34:40;;;;;;;38.20;23.05;;;;;;;-142.57;100.00;55878.84;4981965;28;20088;-77
2023/12/12 03:37:05;;;;;;;39.42;23.05;;;;;;;-142.57;100.00;55890.97;4966146;28;20022;-78
2023/12/12 03:39:31;;;;;;;34.80;21.83;;;;;;;-142.57;100.00;55870.75;4972973;28;20066;-79
2023/12/12 03:41:57;;;;;;;35.95;22.42;;;;;;;-142.57;100.00;55931.38;4973468;28;20027;-79
2023/12/12 03:44:22;;;;;;;39.08;22.75;;;;;;;-142.57;100.00;55895.00;4955505;28;20427;-77
2023/12/12 03:46:48;;;;;;;37.55;22.15;;;;;;;-142.57;100.00;55880.84;4955396;28;20193;-79
2023/12/12 03:49:13;;;;;;;39.92;22.98;;;;;;;-142.57;100.00;55905.09;4955641;28;20019;-81
2023/12/12 03:51:39;;;;;;;40.13;24.17;;;;;;;-142.57;100.00;55907.13;4973078;28;20039;-81
2023/12/12 03:54:04;;;;;;;44.13;24.30;;;;;;;-142.57;100.00;55923.28;4972857;28;20105;-79
2023/12/12 03:56:30;;;;;;;45.95;26.00;;;;;;;-142.57;100.00;55947.53;4955284;28;20117;-79
2023/12/12 03:58:58;;;;;;;49.83;28.33;;;;;;;-142.57;100.00;55947.53;4973719;28;20030;-78
2023/12/12 04:01:23;;;;;;;58.08;30.48;;;;;;;-142.57;100.00;55939.47;4976547;28;20065;-79
2023/12/12 04:03:49;;;;;;;70.25;33.08;;;;;;;-142.57;100.00;55973.81;4977001;28;20122;-78
2023/12/12 04:06:14;;;;;;;66.90;33.63;;;;;;;-142.57;100.00;56012.19;4976440;28;20503;-77
2023/12/12 04:08:40;;;;;;;73.10;34.17;;;;;;;-142.57;100.00;56048.56;4978752;28;20101;-76
2023/12/12 04:11:06;;;;;;;77.57;35.75;;;;;;;-142.57;100.00;56036.44;4975377;28;20119;-77
2023/12/12 04:13:31;;;;;;;75.13;36.00;;;;;;;-142.57;100.00;56014.22;4977025;28;20062;-78
2023/12/12 04:15:57;;;;;;;79.63;37.33;;;;;;;-142.57;100.00;56064.75;4953416;28;20101;-79
2023/12/12 04:18:22;;;;;;;91.32;37.80;;;;;;;-142.57;100.00;56018.25;4975794;28;20043;-78
2023/12/12 04:20:48;;;;;;;80.50;37.28;;;;;;;-142.57;100.00;56038.47;4976783;28;20053;-79
2023/12/12 04:23:13;;;;;;;77.25;35.88;;;;;;;-142.57;100.00;56103.13;4976499;28;20054;-78
2023/12/12 04:25:39;;;;;;;80.35;37.83;;;;;;;-142.57;100.00;56143.56;4976803;28;20041;-80
2023/12/12 04:28:04;;;;;;;78.28;38.47;;;;;;;-142.57;100.00;56159.72;4976291;28;20113;-78
2023/12/12 04:30:30;;;;;;;84.07;39.30;;;;;;;-142.57;100.00;56137.50;4976338;28;20038;-78
2023/12/12 04:32:56;;;;;;;78.10;37.63;;;;;;;-142.57;100.00;56097.06;4975973;28;20074;-79
2023/12/12 04:35:21;;;;;;;77.50;37.28;;;;;;;-142.57;100.00;56125.38;4976152;28;20055;-76
2023/12/12 04:37:47;;;;;;;78.15;35.55;;;;;;;-142.57;100.00;56117.28;4975952;28;20070;-78
2023/12/12 04:40:12;;;;;;;77.53;36.95;;;;;;;-142.57;100.00;56099.09;4986342;28;20106;-81
2023/12/12 04:42:38;;;;;;;80.20;37.95;;;;;;;-142.57;100.00;56101.13;4995856;28;20041;-80
2023/12/12 04:45:05;;;;;;;85.20;39.28;;;;;;;-142.57;100.00;56175.88;4977762;28;20037;-78
2023/12/12 04:47:31;;;;;;;76.80;37.45;;;;;;;-142.57;100.00;56214.28;4975961;28;20481;-80
2023/12/12 04:49:57;;;;;;;80.78;36.75;;;;;;;-142.57;100.00;56206.19;4974526;28;20049;-79
2023/12/12 04:52:23;;;;;;;82.53;39.60;;;;;;;-142.57;100.00;56173.84;4976290;28;20039;-78
2023/12/12 04:54:48;;;;;;;84.18;38.67;;;;;;;-142.57;100.00;56226.41;4975667;28;20097;-80
2023/12/12 04:57:13;;;;;;;78.07;37.50;;;;;;;-142.57;100.00;56185.97;4976126;28;20118;-78
2023/12/12 04:59:39;;;;;;;77.60;37.25;;;;;;;-142.57;100.00;56230.44;4957504;28;20023;-80
2023/12/12 05:02:05;;;;;;;84.38;38.17;;;;;;;-142.57;100.00;56258.72;4987235;28;20039;-78
2023/12/12 05:04:30;;;;;;;86.85;40.25;;;;;;;-142.57;100.00;56270.84;4994184;28;20053;-79
2023/12/12 05:06:56;;;;;;;76.03;38.05;;;;;;;-142.57;100.00;56333.50;4978777;28;20034;-80
2023/12/12 05:09:21;;;;;;;84.93;40.78;;;;;;;-142.57;100.00;56428.47;4975826;28;20034;-80
2023/12/12 05:11:47;;;;;;;85.20;40.55;;;;;;;-142.57;100.00;56428.47;4955428;28;20505;-80
2023/12/12 05:14:14;;;;;;;83.20;39.47;;;;;;;-142.57;100.00;56408.28;4971284;28;20441;-76
2023/12/12 05:16:39;;;;;;;80.22;39.10;;;;;;;-142.57;100.00;56477.00;4973988;28;20050;-79
2023/12/12 05:19:05;;;;;;;77.78;38.20;;;;;;;-142.57;100.00;56448.69;4975402;28;20030;-80
2023/12/12 05:21:31;;;;;;;80.50;39.47;;;;;;;-142.57;100.00;56379.97;4974854;28;20094;-79
2023/12/12 05:23:56;;;;;;;78.72;38.13;;;;;;;-142.57;100.00;56379.97;4974484;28;20034;-79
2023/12/12 05:26:22;;;;;;;82.18;38.72;;;;;;;-142.57;100.00;56434.56;4956975;28;20118;-79
2023/12/12 05:28:47;;;;;;;73.82;38.13;;;;;;;-142.57;100.00;56426.47;4957130;28;20066;-78
2023/12/12 05:31:13;;;;;;;75.65;39.63;;;;;;;-142.57;100.00;56392.09;4956902;28;20113;-82
2023/12/12 05:33:39;;;;;;;73.25;35.85;;;;;;;-142.57;100.00;56444.66;4973659;28;20042;-79
2023/12/12 05:36:08;;;;;;;65.43;34.50;;;;;;;-142.57;100.00;56363.81;4980414;28;20489;-80
2023/12/12 05:38:33;;;;;;;68.57;35.58;;;;;;;-142.57;100.00;56363.81;4974046;28;20038;-78
2023/12/12 05:40:59;;;;;;;67.55;34.15;;;;;;;-142.57;100.00;56282.97;4960183;28;20031;-81
2023/12/12 05:43:24;;;;;;;75.30;37.70;;;;;;;-142.57;100.00;56280.97;4973900;28;20053;-79
2023/12/12 05:45:50;;;;;;;70.93;38.17;;;;;;;-142.57;100.00;56299.16;4957236;28;20126;-78
2023/12/12 05:48:16;;;;;;;73.25;35.70;;;;;;;-142.57;100.00;56343.59;4974344;28;20070;-80
2023/12/12 05:50:41;;;;;;;66.35;35.42;;;;;;;-142.57;100.00;56371.91;4974412;28;20039;-79
2023/12/12 05:53:07;;;;;;;66.07;34.58;;;;;;;-142.57;100.00;56375.94;4974698;28;20034;-79
2023/12/12 05:55:33;;;;;;;68.60;35.40;;;;;;;-142.57;100.00;56272.88;4973136;28;20027;-79
2023/12/12 05:57:59;;;;;;;61.90;32.70;;;;;;;-142.57;100.00;56258.72;4974978;28;20110;-80
2023/12/12 06:00:27;;;;;;;72.40;34.67;;;;;;;-142.57;100.00;56244.59;4973499;28;20061;-81
2023/12/12 06:02:57;;;;;;;74.82;36.88;;;;;;;-142.57;100.00;56216.28;4971902;28;20043;-83
2023/12/12 06:05:23;;;;;;;67.38;33.83;;;;;;;-142.57;100.00;56222.34;4973216;28;20043;-79
2023/12/12 06:07:49;;;;;;;65.95;34.63;;;;;;;-142.57;100.00;56222.34;4959616;28;20118;-80
2023/12/12 06:10:14;;;;;;;68.38;34.95;;;;;;;-142.57;100.00;56242.56;4956081;28;20035;-82
2023/12/12 06:12:40;;;;;;;68.82;34.95;;;;;;;-142.57;100.00;56185.97;4957702;28;20062;-80
2023/12/12 06:15:07;;;;;;;67.93;34.33;;;;;;;-142.57;100.00;56222.34;4974899;28;20043;-81
2023/12/12 06:17:35;;;;;;;59.75;33.05;;;;;;;-142.57;100.00;56230.44;4974587;28;20035;-80
2023/12/12 06:20:02;;;;;;;63.42;33.28;;;;;;;-142.57;100.00;56202.16;4974388;28;20124;-81
2023/12/12 06:22:27;;;;;;;58.83;32.13;;;;;;;-142.57;100.00;56181.94;4955072;28;20054;-81
2023/12/12 06:24:53;;;;;;;70.72;34.10;;;;;;;-142.57;100.00;56133.44;4955233;28;20039;-79
2023/12/12 06:27:19;;;;;;;69.72;34.83;;;;;;;-142.57;100.00;56179.91;4968139;28;20031;-78
2023/12/12 06:29:49;;;;;;;71.00;35.85;;;;;;;-142.57;100.00;56202.16;4974613;28;20444;-83
2023/12/12 06:32:15;;;;;;;72.07;36.40;;;;;;;-142.57;100.00;56218.31;4974651;28;20042;-80
2023/12/12 06:34:43;;;;;;;72.53;36.72;;;;;;;-142.57;100.00;56165.78;4978857;28;20404;-81
2023/12/12 06:37:09;;;;;;;72.28;36.42;;;;;;;-142.57;100.00;56242.56;4994418;28;20545;-79
2023/12/12 06:39:34;;;;;;;74.68;36.92;;;;;;;-142.57;100.00;56276.91;4982594;28;20101;-81
2023/12/12 06:42:00;;;;;;;76.60;38.13;;;;;;;-142.57;100.00;56280.97;4973271;28;20450;-80
2023/12/12 06:44:26;;;;;;;73.43;37.80;;;;;;;-142.57;100.00;56311.28;4974157;28;20169;-80
2023/12/12 06:46:51;;;;;;;78.50;39.22;;;;;;;-142.57;100.00;56297.13;4973400;28;20712;-79
2023/12/12 06:49:17;;;;;;;72.25;37.30;;;;;;;-142.57;100.00;56285.00;4975173;28;20046;-81
2023/12/12 06:51:42;;;;;;;78.03;38.22;;;;;;;-142.57;100.00;56268.84;4957574;28;20045;-82
2023/12/12 06:54:08;;;;;;;80.70;38.35;;;;;;;-142.57;100.00;56270.84;4974827;28;20062;-84
2023/12/12 06:56:34;;;;;;;77.60;38.08;;;;;;;-142.57;100.00;56212.25;4973808;28;20116;-80
2023/12/12 06:58:59;;;;;;;71.20;37.67;;;;;;;-142.57;100.00;56272.88;4974948;28;20473;-79
2023/12/12 07:01:25;;;;;;;72.43;36.92;;;;;;;-142.57;100.00;56295.09;4976010;28;20545;-82
2023/12/12 07:03:50;;;;;;;79.40;36.95;;;;;;;-142.57;100.00;56311.28;4978384;28;20038;-83
2023/12/12 07:06:18;;;;;;;77.10;39.92;;;;;;;-142.57;100.00;56252.66;4974133;28;20066;-81
2023/12/12 07:08:44;;;;;;;79.50;39.38;;;;;;;-142.57;100.00;56254.69;4974642;28;20027;-79
2023/12/12 07:11:11;;;;;;;77.15;39.40;;;;;;;-142.57;100.00;56272.88;4975397;28;20039;-80
2023/12/12 07:13:37;;;;;;;78.95;39.65;;;;;;;-142.57;100.00;56256.72;4981953;28;20034;-82
2023/12/12 07:16:04;;;;;;;80.53;40.15;;;;;;;-142.57;100.00;56246.59;4996212;28;20054;-82
2023/12/12 07:18:29;;;;;;;70.90;37.30;;;;;;;-142.57;100.00;56232.47;4987841;28;20482;-79
2023/12/12 07:20:57;;;;;;;71.47;37.30;;;;;;;-142.57;100.00;56254.69;4974502;28;20059;-79
2023/12/12 07:23:23;;;;;;;71.32;38.17;;;;;;;-142.57;100.00;56270.84;4974284;28;20089;-81
2023/12/12 07:25:48;;;;;;;71.68;37.20;;;;;;;-142.57;100.00;56266.81;4973886;28;20386;-82
2023/12/12 07:28:14;;;;;;;69.28;34.15;;;;;;;-142.57;100.00;56246.59;4973621;28;20125;-82
2023/12/12 07:30:39;;;;;;;68.88;35.28;;;;;;;-142.57;100.00;56210.22;4974330;28;20045;-80
2023/12/12 07:33:05;;;;;;;75.93;36.30;;;;;;;-142.57;100.00;56185.97;4976579;28;20046;-82
2023/12/12 07:35:31;;;;;;;68.72;33.92;;;;;;;-142.57;100.00;56250.66;4978421;28;20133;-81
2023/12/12 07:37:56;;;;;;;72.88;37.03;;;;;;;-142.57;100.00;56169.81;4960737;28;20035;-82
2023/12/12 07:40:24;;;;;;;72.78;37.63;;;;;;;-142.57;100.00;56131.44;4978837;28;20077;-83
2023/12/12 07:42:52;;;;;;;69.20;35.75;;;;;;;-142.57;100.00;56206.19;4978042;28;20046;-84
2023/12/12 07:45:20;;;;;;;74.78;36.38;;;;;;;-142.57;100.00;56163.75;4960923;28;20504;-81
2023/12/12 07:47:46;;;;;;;82.20;39.97;;;;;;;-142.57;100.00;56282.97;4977140;28;20039;-82
2023/12/12 07:50:12;;;;;;;79.03;39.15;;;;;;;-142.57;100.00;56311.28;4977474;28;20054;-83
2023/12/12 07:52:37;;;;;;;78.30;39.97;;;;;;;-142.57;100.00;56278.94;4960786;28;20042;-82
2023/12/12 07:55:04;;;;;;;81.28;38.90;;;;;;;-142.57;100.00;56287.03;4978047;28;20038;-81
2023/12/12 07:57:33;;;;;;;81.05;39.10;;;;;;;-142.57;100.00;56303.19;4978773;28;20152;-80
2023/12/12 07:59:59;;;;;;;80.00;38.95;;;;;;;-142.57;100.00;56319.34;4977341;28;20030;-79
2023/12/12 08:02:24;;;;;;;87.70;39.28;;;;;;;-142.57;100.00;56331.47;4977732;28;20027;-80
2023/12/12 08:04:50;;;;;;;77.68;38.00;;;;;;;-142.57;100.00;56303.19;4974483;28;20042;-80
2023/12/12 08:07:20;;;;;;;80.60;39.58;;;;;;;-142.57;100.00;56299.16;4980389;28;20101;-80
2023/12/12 08:09:45;;;;;;;78.70;39.28;;;;;;;-142.57;100.00;56311.28;4979481;28;20070;-83
2023/12/12 08:12:11;;;;;;;72.15;37.38;;;;;;;-142.57;100.00;56359.78;4982756;28;20034;-85
2023/12/12 08:14:36;;;;;;;76.13;37.95;;;;;;;-142.57;100.00;56230.44;4989758;28;20039;-80
2023/12/12 08:17:02;;;;;;;73.30;36.53;;;;;;;-142.57;100.00;56262.78;4981683;28;20066;-83
2023/12/12 08:19:28;;;;;;;73.25;37.65;;;;;;;-142.57;100.00;56202.16;4965354;28;20381;-81
2023/12/12 08:21:53;;;;;;;76.13;39.05;;;;;;;-142.57;100.00;56183.97;4975757;28;20105;-82
2023/12/12 08:24:20;;;;;;;77.78;39.65;;;;;;;-142.57;100.00;56181.94;4976621;28;20039;-81
2023/12/12 08:26:46;;;;;;;81.00;38.70;;;;;;;-142.57;100.00;56190.03;4976472;28;20394;-81
2023/12/12 08:29:15;;;;;;;73.72;38.85;;;;;;;-142.57;100.00;56214.28;4977097;28;20030;-80
2023/12/12 08:31:41;;;;;;;73.13;37.35;;;;;;;-142.57;100.00;56246.59;4968746;28;20043;-81
2023/12/12 08:34:07;;;;;;;81.10;40.33;;;;;;;-142.57;100.00;56228.41;4958468;28;20117;-80
2023/12/12 08:36:33;;;;;;;81.40;39.15;;;;;;;-142.57;100.00;56230.44;4976951;28;20589;-83
2023/12/12 08:39:00;;;;;;;77.57;38.90;;;;;;;-142.57;100.00;56262.78;4962979;28;20030;-82
2023/12/12 08:41:28;;;;;;;77.00;38.83;;;;;;;-142.57;100.00;56256.72;4995641;28;20509;-82
2023/12/12 08:43:54;;;;;;;84.25;41.03;;;;;;;-142.57;100.00;56214.28;4995250;28;20378;-80
2023/12/12 08:46:26;;;;;;;88.75;42.10;;;;;;;-142.57;100.00;56222.34;4976202;28;20050;-80
2023/12/12 08:48:55;;;;;;;86.82;41.85;;;;;;;-142.57;100.00;56200.13;4975835;28;20362;-81
2023/12/12 08:51:22;;;;;;;88.57;41.53;;;;;;;-142.57;100.00;56202.16;4976253;28;20044;-82
2023/12/12 08:53:48;;;;;;;90.40;43.53;;;;;;;-142.57;100.00;56194.06;4976457;28;20035;-80
2023/12/12 08:56:17;;;;;;;93.43;43.22;;;;;;;-142.57;100.00;56210.22;4959235;28;20457;-81
2023/12/12 08:58:48;;;;;;;105.03;46.67;;;;;;;-142.57;100.00;56226.41;4976030;28;20374;-80
2023/12/12 09:01:15;;;;;;;99.45;44.50;;;;;;;-142.57;100.00;56230.44;4958189;28;20479;-81
2023/12/12 09:03:41;;;;;;;91.43;43.03;;;;;;;-142.57;100.00;56252.66;4975497;28;20047;-82
2023/12/12 09:06:07;;;;;;;94.82;41.50;;;;;;;-142.57;100.00;56246.59;4976041;28;20409;-81
2023/12/12 09:08:32;;;;;;;88.60;41.10;;;;;;;-142.57;100.00;56258.72;4974787;28;20037;-82
2023/12/12 09:10:59;;;;;;;86.97;42.00;;;;;;;-142.57;100.00;56198.09;4976108;28;20438;-81
2023/12/12 09:13:27;;;;;;;90.85;41.45;;;;;;;-142.57;100.00;56202.16;4975774;28;20039;-83
2023/12/12 09:15:54;;;;;;;90.63;42.92;;;;;;;-142.57;100.00;56216.28;4974546;28;20541;-81
2023/12/12 09:18:20;;;;;;;86.38;42.20;;;;;;;-142.57;100.00;56240.53;4971758;28;20383;-81
2023/12/12 09:20:46;;;;;;;87.35;40.13;;;;;;;-142.57;100.00;56222.34;4973813;28;20033;-82
2023/12/12 09:23:11;;;;;;;88.70;40.65;;;;;;;-142.57;100.00;56222.34;4944329;28;20109;-82
2023/12/12 09:25:37;;;;;;;84.72;40.42;;;;;;;-142.57;100.00;56234.47;4967152;28;20480;-82
2023/12/12 09:28:02;;;;;;;84.72;41.15;;;;;;;-142.57;100.00;56246.59;4993257;28;20038;-82
2023/12/12 09:30:28;;;;;;;78.30;39.60;;;;;;;-142.57;100.00;56260.75;4997864;28;20030;-80
2023/12/12 09:32:54;;;;;;;90.45;41.40;;;;;;;-142.57;100.00;56234.47;4982947;28;20555;-83
2023/12/12 09:35:19;;;;;;;84.15;40.70;;;;;;;-142.57;100.00;56226.41;4976326;28;20031;-80
2023/12/12 09:37:45;;;;;;;81.97;39.33;;;;;;;-142.57;100.00;56264.78;4976487;28;20039;-85
2023/12/12 09:40:11;;;;;;;82.22;40.88;;;;;;;-142.57;100.00;56258.72;4979362;28;20102;-80
2023/12/12 09:42:37;;;;;;;79.13;40.00;;;;;;;-142.57;100.00;56250.66;4975866;28;20082;-84
2023/12/12 09:45:08;;;;;;;92.65;37.63;;;;;;;-142.57;100.00;56295.09;4959543;28;20616;-82
2023/12/12 09:47:34;;;;;;;80.40;39.65;;;;;;;-142.57;100.00;56270.84;4976339;28;20114;-82
2023/12/12 09:50:01;;;;;;;75.80;38.58;;;;;;;-142.57;100.00;56274.91;4976631;28;20058;-82
2023/12/12 09:52:29;;;;;;;80.88;39.70;;;;;;;-142.57;100.00;56242.56;4975803;28;20039;-80
2023/12/12 09:54:58;;;;;;;82.93;40.97;;;;;;;-142.57;100.00;56287.03;4974836;28;20046;-83
2023/12/12 09:57:24;;;;;;;71.57;37.10;;;;;;;-142.57;100.00;56315.31;4981662;28;20085;-81
2023/12/12 09:59:49;;;;;;;78.50;40.00;;;;;;;-142.57;100.00;56307.22;4975293;28;20069;-82
2023/12/12 10:02:23;;;;;;;71.53;36.33;;;;;;;-142.57;100.00;56307.22;4975467;28;20043;-82
2023/12/12 10:04:53;;;;;;;70.65;37.20;;;;;;;-142.57;100.00;56278.94;4975328;28;20134;-81
2023/12/12 10:07:20;;;;;;;75.70;39.38;;;;;;;-142.57;100.00;56256.72;4975080;28;20050;-81
2023/12/12 10:09:47;;;;;;;71.93;37.47;;;;;;;-142.57;100.00;56291.06;4975455;28;20397;-82
2023/12/12 10:12:13;;;;;;;78.50;40.63;;;;;;;-142.57;100.00;56297.13;4975357;28;20030;-80
2023/12/12 10:14:40;;;;;;;74.93;38.70;;;;;;;-142.57;100.00;56287.03;4974983;28;20035;-81
2023/12/12 10:17:10;;;;;;;71.60;39.10;;;;;;;-142.57;100.00;56258.72;4975719;28;20037;-82
2023/12/12 10:19:37;;;;;;;78.07;40.63;;;;;;;-142.57;100.00;56274.91;4975229;28;20113;-81
2023/12/12 10:22:09;;;;;;;72.25;39.97;;;;;;;-142.57;100.00;56285.00;4957964;28;20486;-82
2023/12/12 10:24:36;;;;;;;74.82;39.42;;;;;;;-142.57;100.00;56287.03;4974870;28;20034;-83
2023/12/12 10:27:03;;;;;;;81.72;40.75;;;;;;;-142.57;100.00;56307.22;4975279;28;20042;-83
2023/12/12 10:29:30;;;;;;;88.05;40.80;;;;;;;-142.57;100.00;56335.53;4975192;28;20458;-84
2023/12/12 10:31:58;;;;;;;74.63;39.60;;;;;;;-142.57;100.00;56327.44;4974826;28;20390;-83
2023/12/12 10:34:27;;;;;;;74.50;38.63;;;;;;;-142.57;100.00;56262.78;4974685;28;20486;-84
2023/12/12 10:36:53;;;;;;;77.68;40.45;;;;;;;-142.57;100.00;56319.34;4974857;28;20039;-81
2023/12/12 10:39:19;;;;;;;77.63;40.92;;;;;;;-142.57;100.00;56285.00;4974705;28;20035;-81
2023/12/12 10:41:57;;;;;;;75.32;39.08;;;;;;;-142.57;100.00;56331.47;4974671;28;20038;-82
2023/12/12 10:44:32;;;;;;;76.40;39.33;;;;;;;-142.57;100.00;56282.97;4974668;28;20074;-81
2023/12/12 10:46:59;;;;;;;76.15;37.80;;;;;;;-142.57;100.00;56325.41;4974833;28;20042;-82
2023/12/12 10:49:32;;;;;;;76.55;38.38;;;;;;;-142.57;100.00;56327.44;4974541;28;20019;-82